sensor_id;sensor_type;location;lat;lon;timestamp;temperature;humidity
831;DHT22;397;50.564;7.272;2022-12-18T00:04:00;-6.20;99.90
831;DHT22;397;50.564;7.272;2022-12-18T00:06:29;-6.20;99.90
831;DHT22;397;50.564;7.272;2022-12-18T00:08:58;-6.30;99.90
831;DHT22;397;50.564;7.272;2022-12-18T00:11:28;-6.10;99.90
831;DHT22;397;50.564;7.272;2022-12-18T00:13:57;-6.20;99.90
831;DHT22;397;50.564;7.272;2022-12-18T00:16:26;-6.10;99.90
831;DHT22;397;50.564;7.272;2022-12-18T00:18:56;-6.30;99.90
831;DHT22;397;50.564;7.272;2022-12-18T00:21:24;-6.30;99.90
831;DHT22;397;50.564;7.272;2022-12-18T00:23:52;-6.10;99.90
831;DHT22;397;50.564;7.272;2022-12-18T00:26:22;-6.20;99.90
831;DHT22;397;50.564;7.272;2022-12-18T00:28:50;-6.30;99.90
831;DHT22;397;50.564;7.272;2022-12-18T00:31:20;-6.50;99.90
831;DHT22;397;50.564;7.272;2022-12-18T00:33:48;-6.50;99.90
831;DHT22;397;50.564;7.272;2022-12-18T00:36:26;-6.50;99.90
831;DHT22;397;50.564;7.272;2022-12-18T00:38:51;-6.40;99.90
831;DHT22;397;50.564;7.272;2022-12-18T00:41:19;-6.40;99.90
831;DHT22;397;50.564;7.272;2022-12-18T00:44:05;-6.50;99.90
831;DHT22;397;50.564;7.272;2022-12-18T00:46:33;-6.50;99.90
831;DHT22;397;50.564;7.272;2022-12-18T00:49:01;-6.40;99.90
831;DHT22;397;50.564;7.272;2022-12-18T00:51:29;-6.50;99.90
831;DHT22;397;50.564;7.272;2022-12-18T00:53:56;-6.60;99.90
831;DHT22;397;50.564;7.272;2022-12-18T00:56:24;-6.50;99.90
831;DHT22;397;50.564;7.272;2022-12-18T00:58:52;-6.40;99.90
831;DHT22;397;50.564;7.272;2022-12-18T01:01:19;-6.40;99.90
831;DHT22;397;50.564;7.272;2022-12-18T01:03:47;-6.50;99.90
831;DHT22;397;50.564;7.272;2022-12-18T01:06:15;-6.70;99.90
831;DHT22;397;50.564;7.272;2022-12-18T01:08:43;-6.70;99.90
831;DHT22;397;50.564;7.272;2022-12-18T01:11:15;-6.50;99.90
831;DHT22;397;50.564;7.272;2022-12-18T01:13:44;-6.60;99.90
831;DHT22;397;50.564;7.272;2022-12-18T01:16:12;-6.50;99.90
831;DHT22;397;50.564;7.272;2022-12-18T01:18:40;-6.50;99.90
831;DHT22;397;50.564;7.272;2022-12-18T01:21:10;-6.50;99.90
831;DHT22;397;50.564;7.272;2022-12-18T01:23:38;-6.40;99.90
831;DHT22;397;50.564;7.272;2022-12-18T01:26:07;-6.40;99.90
831;DHT22;397;50.564;7.272;2022-12-18T01:28:36;-6.50;99.90
831;DHT22;397;50.564;7.272;2022-12-18T01:31:21;-6.50;99.90
831;DHT22;397;50.564;7.272;2022-12-18T01:33:50;-6.40;99.90
831;DHT22;397;50.564;7.272;2022-12-18T01:36:28;-6.50;99.90
831;DHT22;397;50.564;7.272;2022-12-18T01:38:52;-6.50;99.90
831;DHT22;397;50.564;7.272;2022-12-18T01:41:22;-6.60;99.90
831;DHT22;397;50.564;7.272;2022-12-18T01:43:55;-6.50;99.90
831;DHT22;397;50.564;7.272;2022-12-18T01:46:26;-6.60;99.90
831;DHT22;397;50.564;7.272;2022-12-18T01:49:00;-6.40;99.90
831;DHT22;397;50.564;7.272;2022-12-18T01:51:26;-6.60;99.90
831;DHT22;397;50.564;7.272;2022-12-18T01:53:54;-6.70;99.90
831;DHT22;397;50.564;7.272;2022-12-18T01:56:22;-6.60;99.90
831;DHT22;397;50.564;7.272;2022-12-18T01:58:59;-6.70;99.90
831;DHT22;397;50.564;7.272;2022-12-18T02:01:26;-6.70;99.90
831;DHT22;397;50.564;7.272;2022-12-18T02:03:54;-6.70;99.90
831;DHT22;397;50.564;7.272;2022-12-18T02:06:38;-6.60;99.90
831;DHT22;397;50.564;7.272;2022-12-18T02:09:16;-6.60;99.90
831;DHT22;397;50.564;7.272;2022-12-18T02:11:59;-6.60;99.90
831;DHT22;397;50.564;7.272;2022-12-18T02:17:22;-6.70;99.90
831;DHT22;397;50.564;7.272;2022-12-18T02:20:17;-6.80;99.90
831;DHT22;397;50.564;7.272;2022-12-18T02:25:51;-6.80;99.90
831;DHT22;397;50.564;7.272;2022-12-18T02:28:14;-6.70;99.90
831;DHT22;397;50.564;7.272;2022-12-18T02:30:45;-6.80;99.90
831;DHT22;397;50.564;7.272;2022-12-18T02:33:14;-6.90;99.90
831;DHT22;397;50.564;7.272;2022-12-18T02:35:43;-6.80;99.90
831;DHT22;397;50.564;7.272;2022-12-18T02:38:12;-6.80;99.90
831;DHT22;397;50.564;7.272;2022-12-18T02:40:42;-6.70;99.90
831;DHT22;397;50.564;7.272;2022-12-18T02:43:13;-6.70;99.90
831;DHT22;397;50.564;7.272;2022-12-18T02:45:58;-6.50;99.90
831;DHT22;397;50.564;7.272;2022-12-18T02:48:19;-6.60;99.90
831;DHT22;397;50.564;7.272;2022-12-18T02:51:14;-6.70;99.90
831;DHT22;397;50.564;7.272;2022-12-18T02:53:51;-6.70;99.90
831;DHT22;397;50.564;7.272;2022-12-18T02:56:21;-6.60;99.90
831;DHT22;397;50.564;7.272;2022-12-18T02:59:06;-6.70;99.90
831;DHT22;397;50.564;7.272;2022-12-18T03:01:33;-6.60;99.90
831;DHT22;397;50.564;7.272;2022-12-18T03:04:08;-6.60;99.90
831;DHT22;397;50.564;7.272;2022-12-18T03:06:39;-6.70;99.90
831;DHT22;397;50.564;7.272;2022-12-18T03:09:20;-6.70;99.90
831;DHT22;397;50.564;7.272;2022-12-18T03:11:42;-6.70;99.90
831;DHT22;397;50.564;7.272;2022-12-18T03:14:30;-6.70;99.90
831;DHT22;397;50.564;7.272;2022-12-18T03:17:01;-6.80;99.90
831;DHT22;397;50.564;7.272;2022-12-18T03:19:31;-6.70;99.90
831;DHT22;397;50.564;7.272;2022-12-18T03:22:02;-6.70;99.90
831;DHT22;397;50.564;7.272;2022-12-18T03:24:31;-6.90;99.90
831;DHT22;397;50.564;7.272;2022-12-18T03:27:06;-7.00;99.90
831;DHT22;397;50.564;7.272;2022-12-18T03:29:38;-6.90;99.90
831;DHT22;397;50.564;7.272;2022-12-18T03:32:09;-6.90;99.90
831;DHT22;397;50.564;7.272;2022-12-18T03:34:38;-6.90;99.90
831;DHT22;397;50.564;7.272;2022-12-18T03:37:07;-6.90;99.90
831;DHT22;397;50.564;7.272;2022-12-18T03:39:36;-6.90;99.90
831;DHT22;397;50.564;7.272;2022-12-18T03:42:27;-7.20;99.90
831;DHT22;397;50.564;7.272;2022-12-18T03:45:22;-7.20;99.90
831;DHT22;397;50.564;7.272;2022-12-18T03:48:08;-7.20;99.90
831;DHT22;397;50.564;7.272;2022-12-18T03:53:17;-7.00;99.90
831;DHT22;397;50.564;7.272;2022-12-18T03:55:44;-7.00;99.90
831;DHT22;397;50.564;7.272;2022-12-18T03:58:15;-7.10;99.90
831;DHT22;397;50.564;7.272;2022-12-18T04:00:43;-7.00;99.90
831;DHT22;397;50.564;7.272;2022-12-18T04:03:12;-7.10;99.90
831;DHT22;397;50.564;7.272;2022-12-18T04:05:42;-7.20;99.90
831;DHT22;397;50.564;7.272;2022-12-18T04:08:11;-7.20;99.90
831;DHT22;397;50.564;7.272;2022-12-18T04:10:39;-7.10;99.90
831;DHT22;397;50.564;7.272;2022-12-18T04:13:07;-7.20;99.90
831;DHT22;397;50.564;7.272;2022-12-18T04:15:35;-7.00;99.90
831;DHT22;397;50.564;7.272;2022-12-18T04:18:03;-7.20;99.90
831;DHT22;397;50.564;7.272;2022-12-18T04:20:31;-7.00;99.90
831;DHT22;397;50.564;7.272;2022-12-18T04:22:59;-7.10;99.90
831;DHT22;397;50.564;7.272;2022-12-18T04:25:26;-7.20;99.90
831;DHT22;397;50.564;7.272;2022-12-18T04:27:54;-7.20;99.90
831;DHT22;397;50.564;7.272;2022-12-18T04:30:21;-7.20;99.90
831;DHT22;397;50.564;7.272;2022-12-18T04:32:49;-7.30;99.90
831;DHT22;397;50.564;7.272;2022-12-18T04:35:16;-7.20;99.90
831;DHT22;397;50.564;7.272;2022-12-18T04:37:44;-7.20;99.90
831;DHT22;397;50.564;7.272;2022-12-18T04:40:12;-7.30;99.90
831;DHT22;397;50.564;7.272;2022-12-18T04:42:40;-7.30;99.90
831;DHT22;397;50.564;7.272;2022-12-18T04:45:08;-7.20;99.90
831;DHT22;397;50.564;7.272;2022-12-18T04:47:36;-6.90;99.90
831;DHT22;397;50.564;7.272;2022-12-18T04:50:04;-6.90;99.90
831;DHT22;397;50.564;7.272;2022-12-18T04:52:32;-7.00;99.90
831;DHT22;397;50.564;7.272;2022-12-18T04:54:59;-7.10;99.90
831;DHT22;397;50.564;7.272;2022-12-18T04:57:27;-7.10;99.90
831;DHT22;397;50.564;7.272;2022-12-18T04:59:54;-7.10;99.90
831;DHT22;397;50.564;7.272;2022-12-18T05:02:22;-7.10;99.90
831;DHT22;397;50.564;7.272;2022-12-18T05:04:49;-7.10;99.90
831;DHT22;397;50.564;7.272;2022-12-18T05:07:17;-7.30;99.90
831;DHT22;397;50.564;7.272;2022-12-18T05:09:44;-7.20;99.90
831;DHT22;397;50.564;7.272;2022-12-18T05:12:12;-7.20;99.90
831;DHT22;397;50.564;7.272;2022-12-18T05:14:39;-7.30;99.90
831;DHT22;397;50.564;7.272;2022-12-18T05:17:07;-7.30;99.90
831;DHT22;397;50.564;7.272;2022-12-18T05:19:34;-7.20;99.90
831;DHT22;397;50.564;7.272;2022-12-18T05:22:02;-7.20;99.90
831;DHT22;397;50.564;7.272;2022-12-18T05:24:29;-7.30;99.90
831;DHT22;397;50.564;7.272;2022-12-18T05:26:57;-7.50;99.90
831;DHT22;397;50.564;7.272;2022-12-18T05:29:24;-7.30;99.90
831;DHT22;397;50.564;7.272;2022-12-18T05:31:52;-7.40;99.90
831;DHT22;397;50.564;7.272;2022-12-18T05:34:19;-7.00;99.90
831;DHT22;397;50.564;7.272;2022-12-18T05:36:46;-7.10;99.90
831;DHT22;397;50.564;7.272;2022-12-18T05:39:14;-7.10;99.90
831;DHT22;397;50.564;7.272;2022-12-18T05:41:41;-7.10;99.90
831;DHT22;397;50.564;7.272;2022-12-18T05:44:09;-7.20;99.90
831;DHT22;397;50.564;7.272;2022-12-18T05:46:36;-7.00;99.90
831;DHT22;397;50.564;7.272;2022-12-18T05:49:04;-6.90;99.90
831;DHT22;397;50.564;7.272;2022-12-18T05:51:31;-6.90;99.90
831;DHT22;397;50.564;7.272;2022-12-18T05:53:59;-6.90;99.90
831;DHT22;397;50.564;7.272;2022-12-18T05:56:26;-6.80;99.90
831;DHT22;397;50.564;7.272;2022-12-18T05:58:54;-6.90;99.90
831;DHT22;397;50.564;7.272;2022-12-18T06:01:24;-6.80;99.90
831;DHT22;397;50.564;7.272;2022-12-18T06:03:53;-6.90;99.90
831;DHT22;397;50.564;7.272;2022-12-18T06:06:24;-6.90;99.90
831;DHT22;397;50.564;7.272;2022-12-18T06:08:53;-7.00;99.90
831;DHT22;397;50.564;7.272;2022-12-18T06:11:23;-7.00;99.90
831;DHT22;397;50.564;7.272;2022-12-18T06:13:52;-7.00;99.90
831;DHT22;397;50.564;7.272;2022-12-18T06:16:20;-7.10;99.90
831;DHT22;397;50.564;7.272;2022-12-18T06:18:47;-7.10;99.90
831;DHT22;397;50.564;7.272;2022-12-18T06:21:15;-7.10;99.90
831;DHT22;397;50.564;7.272;2022-12-18T06:23:42;-7.10;99.90
831;DHT22;397;50.564;7.272;2022-12-18T06:26:11;-7.10;99.90
831;DHT22;397;50.564;7.272;2022-12-18T06:28:39;-7.10;99.90
831;DHT22;397;50.564;7.272;2022-12-18T06:31:07;-7.00;99.90
831;DHT22;397;50.564;7.272;2022-12-18T06:33:36;-7.00;99.90
831;DHT22;397;50.564;7.272;2022-12-18T06:36:06;-7.00;99.90
831;DHT22;397;50.564;7.272;2022-12-18T06:38:34;-7.00;99.90
831;DHT22;397;50.564;7.272;2022-12-18T06:41:11;-7.00;99.90
831;DHT22;397;50.564;7.272;2022-12-18T06:43:38;-7.00;99.90
831;DHT22;397;50.564;7.272;2022-12-18T06:46:06;-6.90;99.90
831;DHT22;397;50.564;7.272;2022-12-18T06:48:34;-6.90;99.90
831;DHT22;397;50.564;7.272;2022-12-18T06:51:02;-6.90;99.90
831;DHT22;397;50.564;7.272;2022-12-18T06:53:31;-6.90;99.90
831;DHT22;397;50.564;7.272;2022-12-18T06:56:04;-7.00;99.90
831;DHT22;397;50.564;7.272;2022-12-18T06:58:32;-7.10;99.90
831;DHT22;397;50.564;7.272;2022-12-18T07:01:03;-7.00;99.90
831;DHT22;397;50.564;7.272;2022-12-18T07:03:32;-7.00;99.90
831;DHT22;397;50.564;7.272;2022-12-18T07:05:59;-7.10;99.90
831;DHT22;397;50.564;7.272;2022-12-18T07:08:28;-7.10;99.90
831;DHT22;397;50.564;7.272;2022-12-18T07:10:55;-7.10;99.90
831;DHT22;397;50.564;7.272;2022-12-18T07:13:23;-7.00;99.90
831;DHT22;397;50.564;7.272;2022-12-18T07:15:51;-6.90;99.90
831;DHT22;397;50.564;7.272;2022-12-18T07:18:18;-6.80;99.90
831;DHT22;397;50.564;7.272;2022-12-18T07:20:46;-6.90;99.90
831;DHT22;397;50.564;7.272;2022-12-18T07:23:13;-6.90;99.90
831;DHT22;397;50.564;7.272;2022-12-18T07:25:41;-6.90;99.90
831;DHT22;397;50.564;7.272;2022-12-18T07:28:08;-6.90;99.90
831;DHT22;397;50.564;7.272;2022-12-18T07:30:37;-6.90;99.90
831;DHT22;397;50.564;7.272;2022-12-18T07:33:05;-6.70;99.90
831;DHT22;397;50.564;7.272;2022-12-18T07:35:33;-6.60;99.90
831;DHT22;397;50.564;7.272;2022-12-18T07:38:00;-6.40;99.90
831;DHT22;397;50.564;7.272;2022-12-18T07:40:28;-6.50;99.90
831;DHT22;397;50.564;7.272;2022-12-18T07:42:55;-6.50;99.90
831;DHT22;397;50.564;7.272;2022-12-18T07:45:23;-6.40;99.90
831;DHT22;397;50.564;7.272;2022-12-18T07:47:50;-6.40;99.90
831;DHT22;397;50.564;7.272;2022-12-18T07:50:18;-6.40;99.90
831;DHT22;397;50.564;7.272;2022-12-18T07:52:45;-6.40;99.90
831;DHT22;397;50.564;7.272;2022-12-18T07:55:13;-6.30;99.90
831;DHT22;397;50.564;7.272;2022-12-18T07:57:40;-6.20;99.90
831;DHT22;397;50.564;7.272;2022-12-18T08:00:09;-6.20;99.90
831;DHT22;397;50.564;7.272;2022-12-18T08:02:36;-6.20;99.90
831;DHT22;397;50.564;7.272;2022-12-18T08:05:04;-6.30;99.90
831;DHT22;397;50.564;7.272;2022-12-18T08:07:32;-6.30;99.90
831;DHT22;397;50.564;7.272;2022-12-18T08:09:59;-6.20;99.90
831;DHT22;397;50.564;7.272;2022-12-18T08:12:27;-6.10;99.90
831;DHT22;397;50.564;7.272;2022-12-18T08:14:55;-6.00;99.90
831;DHT22;397;50.564;7.272;2022-12-18T08:17:22;-5.90;99.90
831;DHT22;397;50.564;7.272;2022-12-18T08:19:50;-5.90;99.90
831;DHT22;397;50.564;7.272;2022-12-18T08:22:17;-5.90;99.90
831;DHT22;397;50.564;7.272;2022-12-18T08:24:45;-5.90;99.90
831;DHT22;397;50.564;7.272;2022-12-18T08:27:13;-5.70;99.90
831;DHT22;397;50.564;7.272;2022-12-18T08:29:40;-5.70;99.90
831;DHT22;397;50.564;7.272;2022-12-18T08:32:08;-5.70;99.90
831;DHT22;397;50.564;7.272;2022-12-18T08:34:35;-6.00;99.90
831;DHT22;397;50.564;7.272;2022-12-18T08:37:03;-5.90;99.90
831;DHT22;397;50.564;7.272;2022-12-18T08:39:30;-5.80;99.90
831;DHT22;397;50.564;7.272;2022-12-18T08:41:58;-5.80;99.90
831;DHT22;397;50.564;7.272;2022-12-18T08:44:43;-5.60;99.90
831;DHT22;397;50.564;7.272;2022-12-18T08:47:11;-5.50;99.90
831;DHT22;397;50.564;7.272;2022-12-18T08:49:38;-5.30;99.90
831;DHT22;397;50.564;7.272;2022-12-18T08:52:06;-5.30;99.90
831;DHT22;397;50.564;7.272;2022-12-18T08:54:34;-5.30;99.90
831;DHT22;397;50.564;7.272;2022-12-18T08:57:02;-5.40;99.90
831;DHT22;397;50.564;7.272;2022-12-18T08:59:29;-5.20;99.90
831;DHT22;397;50.564;7.272;2022-12-18T09:01:56;-5.40;99.90
831;DHT22;397;50.564;7.272;2022-12-18T09:04:24;-5.30;99.90
831;DHT22;397;50.564;7.272;2022-12-18T09:06:51;-5.50;99.90
831;DHT22;397;50.564;7.272;2022-12-18T09:09:19;-5.30;99.90
831;DHT22;397;50.564;7.272;2022-12-18T09:11:47;-5.30;99.90
831;DHT22;397;50.564;7.272;2022-12-18T09:14:15;-5.40;99.90
831;DHT22;397;50.564;7.272;2022-12-18T09:16:42;-5.10;99.90
831;DHT22;397;50.564;7.272;2022-12-18T09:19:10;-5.10;99.90
831;DHT22;397;50.564;7.272;2022-12-18T09:21:37;-5.10;99.90
831;DHT22;397;50.564;7.272;2022-12-18T09:24:11;-5.00;99.90
831;DHT22;397;50.564;7.272;2022-12-18T09:26:38;-5.00;99.90
831;DHT22;397;50.564;7.272;2022-12-18T09:29:06;-4.90;99.90
831;DHT22;397;50.564;7.272;2022-12-18T09:31:36;-4.80;99.90
831;DHT22;397;50.564;7.272;2022-12-18T09:34:05;-4.70;99.90
831;DHT22;397;50.564;7.272;2022-12-18T09:36:33;-4.70;99.90
831;DHT22;397;50.564;7.272;2022-12-18T09:39:00;-4.60;99.90
831;DHT22;397;50.564;7.272;2022-12-18T09:41:43;-4.30;99.90
831;DHT22;397;50.564;7.272;2022-12-18T09:44:28;-4.20;99.90
831;DHT22;397;50.564;7.272;2022-12-18T09:47:17;-4.30;99.90
831;DHT22;397;50.564;7.272;2022-12-18T09:49:47;-4.10;99.90
831;DHT22;397;50.564;7.272;2022-12-18T09:55:08;-4.10;99.90
831;DHT22;397;50.564;7.272;2022-12-18T09:57:37;-4.20;99.90
831;DHT22;397;50.564;7.272;2022-12-18T10:00:15;-4.00;99.90
831;DHT22;397;50.564;7.272;2022-12-18T10:02:35;-3.80;99.90
831;DHT22;397;50.564;7.272;2022-12-18T10:05:15;-3.70;99.90
831;DHT22;397;50.564;7.272;2022-12-18T10:10:41;-3.50;99.90
831;DHT22;397;50.564;7.272;2022-12-18T10:13:33;-3.50;99.90
831;DHT22;397;50.564;7.272;2022-12-18T10:16:08;-3.30;99.90
831;DHT22;397;50.564;7.272;2022-12-18T10:18:57;-3.20;99.90
831;DHT22;397;50.564;7.272;2022-12-18T10:21:32;-3.10;99.90
831;DHT22;397;50.564;7.272;2022-12-18T10:24:03;-3.10;99.90
831;DHT22;397;50.564;7.272;2022-12-18T10:26:31;-3.00;99.90
831;DHT22;397;50.564;7.272;2022-12-18T10:28:59;-2.90;99.90
831;DHT22;397;50.564;7.272;2022-12-18T10:31:27;-2.80;99.90
831;DHT22;397;50.564;7.272;2022-12-18T10:33:55;-2.80;99.90
831;DHT22;397;50.564;7.272;2022-12-18T10:36:24;-2.80;99.90
831;DHT22;397;50.564;7.272;2022-12-18T10:38:52;-2.80;99.90
831;DHT22;397;50.564;7.272;2022-12-18T10:44:16;-2.70;99.90
831;DHT22;397;50.564;7.272;2022-12-18T10:46:41;-2.50;99.90
831;DHT22;397;50.564;7.272;2022-12-18T10:49:23;-2.50;99.90
831;DHT22;397;50.564;7.272;2022-12-18T10:51:51;-2.60;99.90
831;DHT22;397;50.564;7.272;2022-12-18T10:54:24;-2.70;99.90
831;DHT22;397;50.564;7.272;2022-12-18T10:56:54;-2.70;99.90
831;DHT22;397;50.564;7.272;2022-12-18T10:59:23;-2.50;99.90
831;DHT22;397;50.564;7.272;2022-12-18T11:01:56;-2.40;99.90
831;DHT22;397;50.564;7.272;2022-12-18T11:04:26;-2.40;99.90
831;DHT22;397;50.564;7.272;2022-12-18T11:07:02;-2.40;99.90
831;DHT22;397;50.564;7.272;2022-12-18T11:09:37;-2.30;99.90
831;DHT22;397;50.564;7.272;2022-12-18T11:14:45;-2.30;99.90
831;DHT22;397;50.564;7.272;2022-12-18T11:17:25;-2.20;99.90
831;DHT22;397;50.564;7.272;2022-12-18T11:19:59;-2.20;99.90
831;DHT22;397;50.564;7.272;2022-12-18T11:22:32;-2.10;99.90
831;DHT22;397;50.564;7.272;2022-12-18T11:27:40;-2.20;99.90
831;DHT22;397;50.564;7.272;2022-12-18T11:30:13;-2.30;99.90
831;DHT22;397;50.564;7.272;2022-12-18T11:32:40;-2.00;99.90
831;DHT22;397;50.564;7.272;2022-12-18T11:35:12;-2.10;99.90
831;DHT22;397;50.564;7.272;2022-12-18T11:37:41;-2.20;99.90
831;DHT22;397;50.564;7.272;2022-12-18T11:40:14;-2.00;99.90
831;DHT22;397;50.564;7.272;2022-12-18T11:42:48;-2.00;99.90
831;DHT22;397;50.564;7.272;2022-12-18T11:45:26;-2.10;99.90
831;DHT22;397;50.564;7.272;2022-12-18T11:48:00;-2.10;99.90
831;DHT22;397;50.564;7.272;2022-12-18T11:50:33;-2.00;99.90
831;DHT22;397;50.564;7.272;2022-12-18T11:53:01;-2.00;99.90
831;DHT22;397;50.564;7.272;2022-12-18T11:55:56;-2.20;99.90
831;DHT22;397;50.564;7.272;2022-12-18T12:01:15;-2.30;99.90
831;DHT22;397;50.564;7.272;2022-12-18T12:11:56;-2.20;99.90
831;DHT22;397;50.564;7.272;2022-12-18T12:14:44;-2.30;99.90
831;DHT22;397;50.564;7.272;2022-12-18T12:22:35;-2.00;99.90
831;DHT22;397;50.564;7.272;2022-12-18T12:30:55;-1.70;99.90
831;DHT22;397;50.564;7.272;2022-12-18T12:33:28;-1.70;99.90
831;DHT22;397;50.564;7.272;2022-12-18T12:36:07;-1.60;99.90
831;DHT22;397;50.564;7.272;2022-12-18T12:38:44;-1.60;99.90
831;DHT22;397;50.564;7.272;2022-12-18T12:41:22;-1.50;99.90
831;DHT22;397;50.564;7.272;2022-12-18T12:44:13;-1.50;99.90
831;DHT22;397;50.564;7.272;2022-12-18T12:46:40;-1.30;99.90
831;DHT22;397;50.564;7.272;2022-12-18T12:49:17;-1.40;99.90
831;DHT22;397;50.564;7.272;2022-12-18T12:51:58;-1.30;99.90
831;DHT22;397;50.564;7.272;2022-12-18T12:54:23;-1.50;99.90
831;DHT22;397;50.564;7.272;2022-12-18T12:59:37;-1.50;99.90
831;DHT22;397;50.564;7.272;2022-12-18T13:05:20;-1.60;99.90
831;DHT22;397;50.564;7.272;2022-12-18T13:07:51;-1.50;99.90
831;DHT22;397;50.564;7.272;2022-12-18T13:15:44;-1.40;99.90
831;DHT22;397;50.564;7.272;2022-12-18T13:18:22;-1.30;99.90
831;DHT22;397;50.564;7.272;2022-12-18T13:21:02;-1.40;99.90
831;DHT22;397;50.564;7.272;2022-12-18T13:23:36;-1.30;99.90
831;DHT22;397;50.564;7.272;2022-12-18T13:34:18;-1.30;99.90
831;DHT22;397;50.564;7.272;2022-12-18T13:36:45;-1.40;99.90
831;DHT22;397;50.564;7.272;2022-12-18T13:39:22;-1.40;99.90
831;DHT22;397;50.564;7.272;2022-12-18T13:44:40;-1.50;99.90
831;DHT22;397;50.564;7.272;2022-12-18T13:47:33;-1.50;99.90
831;DHT22;397;50.564;7.272;2022-12-18T13:49:57;-1.50;99.90
831;DHT22;397;50.564;7.272;2022-12-18T13:52:27;-1.30;99.90
831;DHT22;397;50.564;7.272;2022-12-18T13:54:57;-1.30;99.90
831;DHT22;397;50.564;7.272;2022-12-18T13:57:33;-1.30;99.90
831;DHT22;397;50.564;7.272;2022-12-18T14:00:14;-1.30;99.90
831;DHT22;397;50.564;7.272;2022-12-18T14:02:28;-1.20;99.90
831;DHT22;397;50.564;7.272;2022-12-18T14:04:56;-1.10;99.90
831;DHT22;397;50.564;7.272;2022-12-18T14:07:25;-1.10;99.90
831;DHT22;397;50.564;7.272;2022-12-18T14:09:55;-1.10;99.90
831;DHT22;397;50.564;7.272;2022-12-18T14:12:26;-1.20;99.90
831;DHT22;397;50.564;7.272;2022-12-18T14:17:50;-1.20;99.90
831;DHT22;397;50.564;7.272;2022-12-18T14:20:19;-1.20;99.90
831;DHT22;397;50.564;7.272;2022-12-18T14:22:48;-1.20;99.90
831;DHT22;397;50.564;7.272;2022-12-18T14:25:19;-1.20;99.90
831;DHT22;397;50.564;7.272;2022-12-18T14:27:52;-1.20;99.90
831;DHT22;397;50.564;7.272;2022-12-18T14:30:28;-1.20;99.90
831;DHT22;397;50.564;7.272;2022-12-18T14:33:17;-1.20;99.90
831;DHT22;397;50.564;7.272;2022-12-18T14:36:01;-1.20;99.90
831;DHT22;397;50.564;7.272;2022-12-18T14:38:34;-1.20;99.90
831;DHT22;397;50.564;7.272;2022-12-18T14:41:15;-1.30;99.90
831;DHT22;397;50.564;7.272;2022-12-18T14:43:45;-1.30;99.90
831;DHT22;397;50.564;7.272;2022-12-18T14:48:56;-1.40;99.90
831;DHT22;397;50.564;7.272;2022-12-18T14:51:26;-1.40;99.90
831;DHT22;397;50.564;7.272;2022-12-18T14:53:56;-1.40;99.90
831;DHT22;397;50.564;7.272;2022-12-18T14:56:26;-1.40;99.90
831;DHT22;397;50.564;7.272;2022-12-18T14:59:03;-1.40;99.90
831;DHT22;397;50.564;7.272;2022-12-18T15:01:33;-1.50;99.90
831;DHT22;397;50.564;7.272;2022-12-18T15:04:03;-1.50;99.90
831;DHT22;397;50.564;7.272;2022-12-18T15:06:34;-1.50;99.90
831;DHT22;397;50.564;7.272;2022-12-18T15:09:04;-1.50;99.90
831;DHT22;397;50.564;7.272;2022-12-18T15:17:25;-1.60;99.90
831;DHT22;397;50.564;7.272;2022-12-18T15:19:41;-1.60;99.90
831;DHT22;397;50.564;7.272;2022-12-18T15:22:25;-1.60;99.90
831;DHT22;397;50.564;7.272;2022-12-18T15:24:52;-1.60;99.90
831;DHT22;397;50.564;7.272;2022-12-18T15:27:26;-1.60;99.90
831;DHT22;397;50.564;7.272;2022-12-18T15:32:39;-1.60;99.90
831;DHT22;397;50.564;7.272;2022-12-18T15:35:14;-1.60;99.90
831;DHT22;397;50.564;7.272;2022-12-18T15:37:41;-1.50;99.90
831;DHT22;397;50.564;7.272;2022-12-18T15:40:20;-1.60;99.90
831;DHT22;397;50.564;7.272;2022-12-18T15:42:50;-1.60;99.90
831;DHT22;397;50.564;7.272;2022-12-18T15:45:35;-1.50;99.90
831;DHT22;397;50.564;7.272;2022-12-18T15:48:23;-1.50;99.90
831;DHT22;397;50.564;7.272;2022-12-18T15:50:36;-1.50;99.90
831;DHT22;397;50.564;7.272;2022-12-18T15:53:04;-1.60;99.90
831;DHT22;397;50.564;7.272;2022-12-18T15:55:32;-1.50;99.90
831;DHT22;397;50.564;7.272;2022-12-18T15:58:17;-1.50;99.90
831;DHT22;397;50.564;7.272;2022-12-18T16:00:46;-1.60;99.90
831;DHT22;397;50.564;7.272;2022-12-18T16:03:14;-1.50;99.90
831;DHT22;397;50.564;7.272;2022-12-18T16:05:41;-1.50;99.90
831;DHT22;397;50.564;7.272;2022-12-18T16:08:09;-1.60;99.90
831;DHT22;397;50.564;7.272;2022-12-18T16:10:36;-1.50;99.90
831;DHT22;397;50.564;7.272;2022-12-18T16:13:04;-1.50;99.90
831;DHT22;397;50.564;7.272;2022-12-18T16:15:31;-1.50;99.90
831;DHT22;397;50.564;7.272;2022-12-18T16:17:59;-1.50;99.90
831;DHT22;397;50.564;7.272;2022-12-18T16:20:26;-1.60;99.90
831;DHT22;397;50.564;7.272;2022-12-18T16:22:54;-1.60;99.90
831;DHT22;397;50.564;7.272;2022-12-18T16:25:25;-1.60;99.90
831;DHT22;397;50.564;7.272;2022-12-18T16:27:54;-1.70;99.90
831;DHT22;397;50.564;7.272;2022-12-18T16:30:27;-1.70;99.90
831;DHT22;397;50.564;7.272;2022-12-18T16:32:55;-1.70;99.90
831;DHT22;397;50.564;7.272;2022-12-18T16:35:23;-1.70;99.90
831;DHT22;397;50.564;7.272;2022-12-18T16:37:51;-1.70;99.90
831;DHT22;397;50.564;7.272;2022-12-18T16:40:18;-1.60;99.90
831;DHT22;397;50.564;7.272;2022-12-18T16:42:46;-1.60;99.90
831;DHT22;397;50.564;7.272;2022-12-18T16:45:18;-1.50;99.90
831;DHT22;397;50.564;7.272;2022-12-18T16:47:45;-1.60;99.90
831;DHT22;397;50.564;7.272;2022-12-18T16:50:13;-1.60;99.90
831;DHT22;397;50.564;7.272;2022-12-18T16:52:41;-1.60;99.90
831;DHT22;397;50.564;7.272;2022-12-18T16:55:09;-1.70;99.90
831;DHT22;397;50.564;7.272;2022-12-18T16:57:37;-1.70;99.90
831;DHT22;397;50.564;7.272;2022-12-18T17:00:05;-1.70;99.90
831;DHT22;397;50.564;7.272;2022-12-18T17:02:33;-1.70;99.90
831;DHT22;397;50.564;7.272;2022-12-18T17:05:00;-1.70;99.90
831;DHT22;397;50.564;7.272;2022-12-18T17:07:28;-1.60;99.90
831;DHT22;397;50.564;7.272;2022-12-18T17:09:56;-1.60;99.90
831;DHT22;397;50.564;7.272;2022-12-18T17:12:23;-1.70;99.90
831;DHT22;397;50.564;7.272;2022-12-18T17:14:52;-1.70;99.90
831;DHT22;397;50.564;7.272;2022-12-18T17:17:19;-1.60;99.90
831;DHT22;397;50.564;7.272;2022-12-18T17:19:47;-1.70;99.90
831;DHT22;397;50.564;7.272;2022-12-18T17:22:14;-1.70;99.90
831;DHT22;397;50.564;7.272;2022-12-18T17:24:42;-1.60;99.90
831;DHT22;397;50.564;7.272;2022-12-18T17:27:09;-1.60;99.90
831;DHT22;397;50.564;7.272;2022-12-18T17:29:37;-1.70;99.90
831;DHT22;397;50.564;7.272;2022-12-18T17:32:04;-1.70;99.90
831;DHT22;397;50.564;7.272;2022-12-18T17:34:32;-1.70;99.90
831;DHT22;397;50.564;7.272;2022-12-18T17:36:59;-1.70;99.90
831;DHT22;397;50.564;7.272;2022-12-18T17:39:27;-1.70;99.90
831;DHT22;397;50.564;7.272;2022-12-18T17:41:56;-1.70;99.90
831;DHT22;397;50.564;7.272;2022-12-18T17:44:23;-1.70;99.90
831;DHT22;397;50.564;7.272;2022-12-18T17:46:51;-1.70;99.90
831;DHT22;397;50.564;7.272;2022-12-18T17:49:19;-1.70;99.90
831;DHT22;397;50.564;7.272;2022-12-18T17:51:47;-1.70;99.90
831;DHT22;397;50.564;7.272;2022-12-18T17:54:15;-1.70;99.90
831;DHT22;397;50.564;7.272;2022-12-18T17:56:42;-1.70;99.90
831;DHT22;397;50.564;7.272;2022-12-18T17:59:10;-1.70;99.90
831;DHT22;397;50.564;7.272;2022-12-18T18:01:38;-1.70;99.90
831;DHT22;397;50.564;7.272;2022-12-18T18:04:05;-1.70;99.90
831;DHT22;397;50.564;7.272;2022-12-18T18:06:32;-1.70;99.90
831;DHT22;397;50.564;7.272;2022-12-18T18:09:00;-1.70;99.90
831;DHT22;397;50.564;7.272;2022-12-18T18:11:27;-1.70;99.90
831;DHT22;397;50.564;7.272;2022-12-18T18:14:16;-1.70;99.90
831;DHT22;397;50.564;7.272;2022-12-18T18:16:46;-1.70;99.90
831;DHT22;397;50.564;7.272;2022-12-18T18:19:19;-1.70;99.90